sensor_id;sensor_type;location;lat;lon;timestamp;P1;durP1;ratioP1;P2;durP2;ratioP2
48873;SDS011;66155;46.204;5.220;2024-01-15T00:01:34;42.17;;;17.75;;
48873;SDS011;66155;46.204;5.220;2024-01-15T00:06:35;35.00;;;16.48;;
48873;SDS011;66155;46.204;5.220;2024-01-15T00:11:35;33.13;;;15.40;;
48873;SDS011;66155;46.204;5.220;2024-01-15T00:16:36;36.05;;;16.42;;
48873;SDS011;66155;46.204;5.220;2024-01-15T00:21:36;33.35;;;15.50;;
48873;SDS011;66155;46.204;5.220;2024-01-15T00:26:37;29.80;;;15.10;;
48873;SDS011;66155;46.204;5.220;2024-01-15T00:31:37;32.75;;;15.25;;
48873;SDS011;66155;46.204;5.220;2024-01-15T00:36:38;29.58;;;14.32;;
48873;SDS011;66155;46.204;5.220;2024-01-15T00:41:38;32.67;;;15.07;;
48873;SDS011;66155;46.204;5.220;2024-01-15T00:46:45;32.92;;;15.52;;
48873;SDS011;66155;46.204;5.220;2024-01-15T00:51:47;33.33;;;16.05;;
48873;SDS011;66155;46.204;5.220;2024-01-15T00:56:47;30.42;;;15.73;;
48873;SDS011;66155;46.204;5.220;2024-01-15T01:01:48;27.75;;;13.48;;
48873;SDS011;66155;46.204;5.220;2024-01-15T01:06:51;33.13;;;15.60;;
48873;SDS011;66155;46.204;5.220;2024-01-15T01:11:51;25.20;;;13.18;;
48873;SDS011;66155;46.204;5.220;2024-01-15T01:16:52;27.08;;;12.60;;
48873;SDS011;66155;46.204;5.220;2024-01-15T01:21:52;26.08;;;13.13;;
48873;SDS011;66155;46.204;5.220;2024-01-15T01:26:54;27.00;;;12.55;;
48873;SDS011;66155;46.204;5.220;2024-01-15T01:31:55;22.27;;;12.30;;
48873;SDS011;66155;46.204;5.220;2024-01-15T01:36:56;20.35;;;11.10;;
48873;SDS011;66155;46.204;5.220;2024-01-15T01:41:57;21.25;;;11.00;;
48873;SDS011;66155;46.204;5.220;2024-01-15T01:46:58;23.58;;;12.43;;
48873;SDS011;66155;46.204;5.220;2024-01-15T01:51:59;21.58;;;10.75;;
48873;SDS011;66155;46.204;5.220;2024-01-15T01:57:02;21.90;;;10.65;;
48873;SDS011;66155;46.204;5.220;2024-01-15T02:02:05;15.43;;;9.05;;
48873;SDS011;66155;46.204;5.220;2024-01-15T02:07:05;25.75;;;12.40;;
48873;SDS011;66155;46.204;5.220;2024-01-15T02:12:06;22.65;;;9.50;;
48873;SDS011;66155;46.204;5.220;2024-01-15T02:17:07;18.10;;;9.57;;
48873;SDS011;66155;46.204;5.220;2024-01-15T02:22:07;15.98;;;8.75;;
48873;SDS011;66155;46.204;5.220;2024-01-15T02:27:07;22.02;;;9.80;;
48873;SDS011;66155;46.204;5.220;2024-01-15T02:32:08;14.70;;;8.10;;
48873;SDS011;66155;46.204;5.220;2024-01-15T02:37:09;22.63;;;10.27;;
48873;SDS011;66155;46.204;5.220;2024-01-15T02:42:10;18.08;;;10.27;;
48873;SDS011;66155;46.204;5.220;2024-01-15T02:47:10;15.05;;;8.57;;
48873;SDS011;66155;46.204;5.220;2024-01-15T02:52:11;17.25;;;8.00;;
48873;SDS011;66155;46.204;5.220;2024-01-15T02:57:11;16.55;;;8.45;;
48873;SDS011;66155;46.204;5.220;2024-01-15T03:02:12;13.00;;;7.35;;
48873;SDS011;66155;46.204;5.220;2024-01-15T03:07:12;10.68;;;6.93;;
48873;SDS011;66155;46.204;5.220;2024-01-15T03:12:13;12.93;;;7.90;;
48873;SDS011;66155;46.204;5.220;2024-01-15T03:17:13;14.15;;;8.05;;
48873;SDS011;66155;46.204;5.220;2024-01-15T03:22:14;15.68;;;8.55;;
48873;SDS011;66155;46.204;5.220;2024-01-15T03:27:14;12.68;;;8.18;;
48873;SDS011;66155;46.204;5.220;2024-01-15T03:32:15;15.07;;;9.23;;
48873;SDS011;66155;46.204;5.220;2024-01-15T03:37:16;16.33;;;9.15;;
48873;SDS011;66155;46.204;5.220;2024-01-15T03:42:16;19.15;;;10.32;;
48873;SDS011;66155;46.204;5.220;2024-01-15T03:47:17;15.00;;;9.23;;
48873;SDS011;66155;46.204;5.220;2024-01-15T03:52:17;20.85;;;9.20;;
48873;SDS011;66155;46.204;5.220;2024-01-15T03:57:18;18.17;;;9.05;;
48873;SDS011;66155;46.204;5.220;2024-01-15T04:02:18;15.90;;;8.55;;
48873;SDS011;66155;46.204;5.220;2024-01-15T04:07:18;14.75;;;9.40;;
48873;SDS011;66155;46.204;5.220;2024-01-15T04:12:19;15.63;;;9.77;;
48873;SDS011;66155;46.204;5.220;2024-01-15T04:17:19;14.95;;;9.38;;
48873;SDS011;66155;46.204;5.220;2024-01-15T04:22:21;16.30;;;10.40;;
48873;SDS011;66155;46.204;5.220;2024-01-15T04:27:23;17.48;;;9.73;;
48873;SDS011;66155;46.204;5.220;2024-01-15T04:32:24;17.27;;;10.27;;
48873;SDS011;66155;46.204;5.220;2024-01-15T04:37:24;18.33;;;9.75;;
48873;SDS011;66155;46.204;5.220;2024-01-15T04:42:25;20.92;;;10.82;;
48873;SDS011;66155;46.204;5.220;2024-01-15T04:47:26;18.30;;;10.52;;
48873;SDS011;66155;46.204;5.220;2024-01-15T04:52:26;21.50;;;11.07;;
48873;SDS011;66155;46.204;5.220;2024-01-15T04:57:27;27.90;;;14.93;;
48873;SDS011;66155;46.204;5.220;2024-01-15T05:02:27;33.63;;;14.43;;
48873;SDS011;66155;46.204;5.220;2024-01-15T05:07:28;25.75;;;14.57;;
48873;SDS011;66155;46.204;5.220;2024-01-15T05:12:28;28.95;;;15.40;;
48873;SDS011;66155;46.204;5.220;2024-01-15T05:17:29;29.52;;;14.20;;
48873;SDS011;66155;46.204;5.220;2024-01-15T05:22:29;29.33;;;14.70;;
48873;SDS011;66155;46.204;5.220;2024-01-15T05:27:30;24.08;;;13.25;;
48873;SDS011;66155;46.204;5.220;2024-01-15T05:32:30;27.33;;;12.85;;
48873;SDS011;66155;46.204;5.220;2024-01-15T05:37:30;25.27;;;12.30;;
48873;SDS011;66155;46.204;5.220;2024-01-15T05:42:31;26.30;;;13.15;;
48873;SDS011;66155;46.204;5.220;2024-01-15T05:47:32;23.23;;;12.60;;
48873;SDS011;66155;46.204;5.220;2024-01-15T05:52:32;23.08;;;13.20;;
48873;SDS011;66155;46.204;5.220;2024-01-15T05:57:33;29.08;;;14.68;;
48873;SDS011;66155;46.204;5.220;2024-01-15T06:02:33;22.25;;;12.32;;
48873;SDS011;66155;46.204;5.220;2024-01-15T06:07:35;25.15;;;11.93;;
48873;SDS011;66155;46.204;5.220;2024-01-15T06:12:36;23.77;;;14.52;;
48873;SDS011;66155;46.204;5.220;2024-01-15T06:17:36;21.60;;;12.30;;
48873;SDS011;66155;46.204;5.220;2024-01-15T06:22:37;21.35;;;12.65;;
48873;SDS011;66155;46.204;5.220;2024-01-15T06:27:39;22.67;;;13.23;;
48873;SDS011;66155;46.204;5.220;2024-01-15T06:32:39;22.20;;;12.88;;
48873;SDS011;66155;46.204;5.220;2024-01-15T06:37:40;25.17;;;11.93;;
48873;SDS011;66155;46.204;5.220;2024-01-15T06:42:40;23.15;;;11.73;;
48873;SDS011;66155;46.204;5.220;2024-01-15T06:47:41;22.02;;;12.90;;
48873;SDS011;66155;46.204;5.220;2024-01-15T06:52:42;26.15;;;12.85;;
48873;SDS011;66155;46.204;5.220;2024-01-15T06:57:42;22.58;;;15.60;;
48873;SDS011;66155;46.204;5.220;2024-01-15T07:02:43;24.58;;;16.23;;
48873;SDS011;66155;46.204;5.220;2024-01-15T07:07:43;25.27;;;16.65;;
48873;SDS011;66155;46.204;5.220;2024-01-15T07:12:43;28.80;;;17.00;;
48873;SDS011;66155;46.204;5.220;2024-01-15T07:17:44;19.60;;;12.27;;
48873;SDS011;66155;46.204;5.220;2024-01-15T07:22:45;20.25;;;11.30;;
48873;SDS011;66155;46.204;5.220;2024-01-15T07:27:45;18.25;;;10.77;;
48873;SDS011;66155;46.204;5.220;2024-01-15T07:32:46;21.42;;;10.60;;
48873;SDS011;66155;46.204;5.220;2024-01-15T07:37:47;17.95;;;10.15;;
48873;SDS011;66155;46.204;5.220;2024-01-15T07:42:47;15.38;;;9.10;;
48873;SDS011;66155;46.204;5.220;2024-01-15T07:47:48;13.30;;;9.10;;
48873;SDS011;66155;46.204;5.220;2024-01-15T07:52:49;15.27;;;10.75;;
48873;SDS011;66155;46.204;5.220;2024-01-15T07:57:49;16.75;;;10.65;;
48873;SDS011;66155;46.204;5.220;2024-01-15T08:02:51;16.63;;;9.73;;
48873;SDS011;66155;46.204;5.220;2024-01-15T08:07:53;18.50;;;10.55;;
48873;SDS011;66155;46.204;5.220;2024-01-15T08:12:53;18.25;;;11.82;;
48873;SDS011;66155;46.204;5.220;2024-01-15T08:17:53;20.73;;;12.27;;
48873;SDS011;66155;46.204;5.220;2024-01-15T08:22:54;20.30;;;11.70;;
48873;SDS011;66155;46.204;5.220;2024-01-15T08:27:55;21.63;;;16.70;;
48873;SDS011;66155;46.204;5.220;2024-01-15T08:32:56;16.67;;;11.07;;
48873;SDS011;66155;46.204;5.220;2024-01-15T08:37:57;18.13;;;10.82;;
48873;SDS011;66155;46.204;5.220;2024-01-15T08:42:58;18.20;;;10.98;;
48873;SDS011;66155;46.204;5.220;2024-01-15T08:47:58;20.47;;;11.33;;
48873;SDS011;66155;46.204;5.220;2024-01-15T08:52:59;24.25;;;12.13;;
48873;SDS011;66155;46.204;5.220;2024-01-15T08:57:59;21.83;;;13.33;;
48873;SDS011;66155;46.204;5.220;2024-01-15T09:03:00;22.67;;;12.47;;
48873;SDS011;66155;46.204;5.220;2024-01-15T09:08:00;17.83;;;9.45;;
48873;SDS011;66155;46.204;5.220;2024-01-15T09:13:01;17.35;;;10.73;;
48873;SDS011;66155;46.204;5.220;2024-01-15T09:18:01;19.90;;;10.90;;
48873;SDS011;66155;46.204;5.220;2024-01-15T09:23:02;15.98;;;10.23;;
48873;SDS011;66155;46.204;5.220;2024-01-15T09:28:03;22.42;;;12.30;;
48873;SDS011;66155;46.204;5.220;2024-01-15T09:33:03;21.58;;;11.52;;
48873;SDS011;66155;46.204;5.220;2024-01-15T09:38:04;16.63;;;11.27;;
48873;SDS011;66155;46.204;5.220;2024-01-15T09:43:05;18.77;;;11.23;;
48873;SDS011;66155;46.204;5.220;2024-01-15T09:48:06;16.25;;;11.10;;
48873;SDS011;66155;46.204;5.220;2024-01-15T09:53:07;20.90;;;12.98;;
48873;SDS011;66155;46.204;5.220;2024-01-15T09:58:09;22.67;;;12.35;;
48873;SDS011;66155;46.204;5.220;2024-01-15T10:03:10;20.60;;;12.00;;
48873;SDS011;66155;46.204;5.220;2024-01-15T10:08:11;23.10;;;13.85;;
48873;SDS011;66155;46.204;5.220;2024-01-15T10:13:11;21.75;;;13.18;;
48873;SDS011;66155;46.204;5.220;2024-01-15T10:18:12;20.17;;;11.73;;
48873;SDS011;66155;46.204;5.220;2024-01-15T10:23:14;18.30;;;11.80;;
48873;SDS011;66155;46.204;5.220;2024-01-15T10:28:15;26.98;;;12.20;;
48873;SDS011;66155;46.204;5.220;2024-01-15T10:33:15;15.75;;;9.63;;
48873;SDS011;66155;46.204;5.220;2024-01-15T10:38:22;15.38;;;9.27;;
48873;SDS011;66155;46.204;5.220;2024-01-15T10:43:23;15.82;;;10.10;;
48873;SDS011;66155;46.204;5.220;2024-01-15T10:48:23;15.55;;;9.75;;
48873;SDS011;66155;46.204;5.220;2024-01-15T10:53:24;15.13;;;9.45;;
48873;SDS011;66155;46.204;5.220;2024-01-15T10:58:27;15.38;;;11.63;;
48873;SDS011;66155;46.204;5.220;2024-01-15T11:03:31;14.57;;;10.77;;
48873;SDS011;66155;46.204;5.220;2024-01-15T11:08:32;11.55;;;8.23;;
48873;SDS011;66155;46.204;5.220;2024-01-15T11:18:36;12.97;;;8.10;;
48873;SDS011;66155;46.204;5.220;2024-01-15T11:23:42;13.68;;;8.45;;
48873;SDS011;66155;46.204;5.220;2024-01-15T11:28:49;11.70;;;7.68;;
48873;SDS011;66155;46.204;5.220;2024-01-15T11:38:50;10.25;;;7.82;;
48873;SDS011;66155;46.204;5.220;2024-01-15T11:43:50;10.60;;;7.45;;
48873;SDS011;66155;46.204;5.220;2024-01-15T11:48:52;11.82;;;7.40;;
48873;SDS011;66155;46.204;5.220;2024-01-15T11:54:03;13.93;;;8.20;;
48873;SDS011;66155;46.204;5.220;2024-01-15T11:59:09;9.95;;;7.38;;
48873;SDS011;66155;46.204;5.220;2024-01-15T12:04:10;12.95;;;8.23;;
48873;SDS011;66155;46.204;5.220;2024-01-15T12:09:10;11.52;;;7.20;;
48873;SDS011;66155;46.204;5.220;2024-01-15T12:14:10;12.90;;;7.97;;
48873;SDS011;66155;46.204;5.220;2024-01-15T12:19:11;13.40;;;8.25;;
48873;SDS011;66155;46.204;5.220;2024-01-15T12:24:11;15.63;;;9.43;;
48873;SDS011;66155;46.204;5.220;2024-01-15T12:29:11;12.27;;;8.55;;
48873;SDS011;66155;46.204;5.220;2024-01-15T12:34:12;15.10;;;9.23;;
48873;SDS011;66155;46.204;5.220;2024-01-15T12:39:12;12.83;;;7.80;;
48873;SDS011;66155;46.204;5.220;2024-01-15T12:44:13;13.30;;;8.75;;
48873;SDS011;66155;46.204;5.220;2024-01-15T12:49:13;12.25;;;8.23;;
48873;SDS011;66155;46.204;5.220;2024-01-15T12:54:14;10.88;;;8.10;;
48873;SDS011;66155;46.204;5.220;2024-01-15T12:59:15;9.85;;;7.93;;
48873;SDS011;66155;46.204;5.220;2024-01-15T13:04:22;11.82;;;7.82;;
48873;SDS011;66155;46.204;5.220;2024-01-15T13:09:23;8.25;;;7.18;;
48873;SDS011;66155;46.204;5.220;2024-01-15T13:14:23;10.38;;;8.63;;
48873;SDS011;66155;46.204;5.220;2024-01-15T13:19:24;10.10;;;7.75;;
48873;SDS011;66155;46.204;5.220;2024-01-15T13:24:24;9.57;;;7.45;;
48873;SDS011;66155;46.204;5.220;2024-01-15T13:29:25;9.55;;;7.10;;
48873;SDS011;66155;46.204;5.220;2024-01-15T13:34:25;10.83;;;7.33;;
48873;SDS011;66155;46.204;5.220;2024-01-15T13:39:25;8.77;;;6.67;;
48873;SDS011;66155;46.204;5.220;2024-01-15T13:44:26;9.68;;;7.53;;
48873;SDS011;66155;46.204;5.220;2024-01-15T13:49:26;8.40;;;7.20;;
48873;SDS011;66155;46.204;5.220;2024-01-15T13:54:26;9.38;;;8.18;;
48873;SDS011;66155;46.204;5.220;2024-01-15T13:59:27;9.80;;;7.65;;
48873;SDS011;66155;46.204;5.220;2024-01-15T14:04:28;9.75;;;7.20;;
48873;SDS011;66155;46.204;5.220;2024-01-15T14:09:30;8.88;;;7.68;;
48873;SDS011;66155;46.204;5.220;2024-01-15T14:14:31;9.98;;;7.03;;
48873;SDS011;66155;46.204;5.220;2024-01-15T14:19:32;9.18;;;7.80;;
48873;SDS011;66155;46.204;5.220;2024-01-15T14:24:33;10.55;;;7.78;;
48873;SDS011;66155;46.204;5.220;2024-01-15T14:29:33;14.30;;;11.65;;
48873;SDS011;66155;46.204;5.220;2024-01-15T14:34:33;10.65;;;7.75;;
48873;SDS011;66155;46.204;5.220;2024-01-15T14:39:37;12.27;;;10.45;;
48873;SDS011;66155;46.204;5.220;2024-01-15T14:44:37;10.45;;;7.70;;
48873;SDS011;66155;46.204;5.220;2024-01-15T14:49:40;10.52;;;7.55;;
48873;SDS011;66155;46.204;5.220;2024-01-15T14:54:41;9.07;;;7.78;;
48873;SDS011;66155;46.204;5.220;2024-01-15T14:59:42;11.52;;;8.43;;
48873;SDS011;66155;46.204;5.220;2024-01-15T15:04:42;10.43;;;8.23;;
48873;SDS011;66155;46.204;5.220;2024-01-15T15:09:42;11.35;;;8.00;;
48873;SDS011;66155;46.204;5.220;2024-01-15T15:14:43;11.77;;;8.47;;
48873;SDS011;66155;46.204;5.220;2024-01-15T15:19:43;9.63;;;8.07;;
48873;SDS011;66155;46.204;5.220;2024-01-15T15:24:44;10.48;;;8.35;;
48873;SDS011;66155;46.204;5.220;2024-01-15T15:29:44;10.23;;;8.02;;
48873;SDS011;66155;46.204;5.220;2024-01-15T15:34:45;13.13;;;8.80;;
48873;SDS011;66155;46.204;5.220;2024-01-15T15:39:45;12.25;;;8.52;;
48873;SDS011;66155;46.204;5.220;2024-01-15T15:44:45;13.00;;;8.38;;
48873;SDS011;66155;46.204;5.220;2024-01-15T15:49:46;15.18;;;8.45;;
48873;SDS011;66155;46.204;5.220;2024-01-15T15:54:47;14.53;;;8.73;;
48873;SDS011;66155;46.204;5.220;2024-01-15T15:59:47;14.48;;;9.27;;
48873;SDS011;66155;46.204;5.220;2024-01-15T16:04:48;13.35;;;8.65;;
48873;SDS011;66155;46.204;5.220;2024-01-15T16:09:48;17.38;;;9.65;;
48873;SDS011;66155;46.204;5.220;2024-01-15T16:14:48;11.90;;;9.20;;
48873;SDS011;66155;46.204;5.220;2024-01-15T16:19:49;17.98;;;10.90;;
48873;SDS011;66155;46.204;5.220;2024-01-15T16:24:51;15.85;;;9.63;;
48873;SDS011;66155;46.204;5.220;2024-01-15T16:29:51;13.88;;;9.05;;
48873;SDS011;66155;46.204;5.220;2024-01-15T16:34:51;15.57;;;10.27;;
48873;SDS011;66155;46.204;5.220;2024-01-15T16:39:52;20.48;;;11.02;;
48873;SDS011;66155;46.204;5.220;2024-01-15T16:44:53;19.83;;;10.93;;
48873;SDS011;66155;46.204;5.220;2024-01-15T16:49:53;18.45;;;11.63;;
48873;SDS011;66155;46.204;5.220;2024-01-15T16:54:54;17.13;;;11.07;;
48873;SDS011;66155;46.204;5.220;2024-01-15T16:59:56;19.42;;;11.63;;
48873;SDS011;66155;46.204;5.220;2024-01-15T17:04:56;17.85;;;10.88;;
48873;SDS011;66155;46.204;5.220;2024-01-15T17:09:57;18.50;;;10.65;;
48873;SDS011;66155;46.204;5.220;2024-01-15T17:14:57;22.35;;;10.43;;
48873;SDS011;66155;46.204;5.220;2024-01-15T17:19:57;20.93;;;10.53;;
48873;SDS011;66155;46.204;5.220;2024-01-15T17:24:58;25.13;;;11.75;;
48873;SDS011;66155;46.204;5.220;2024-01-15T17:29:58;23.08;;;11.90;;
48873;SDS011;66155;46.204;5.220;2024-01-15T17:34:59;19.95;;;12.35;;
48873;SDS011;66155;46.204;5.220;2024-01-15T17:40:00;21.13;;;11.75;;
48873;SDS011;66155;46.204;5.220;2024-01-15T17:45:03;21.67;;;12.43;;
48873;SDS011;66155;46.204;5.220;2024-01-15T17:50:03;23.05;;;13.00;;
48873;SDS011;66155;46.204;5.220;2024-01-15T17:55:04;24.45;;;13.55;;
48873;SDS011;66155;46.204;5.220;2024-01-15T18:00:05;31.30;;;16.00;;
48873;SDS011;66155;46.204;5.220;2024-01-15T18:05:07;27.02;;;13.50;;
48873;SDS011;66155;46.204;5.220;2024-01-15T18:10:08;33.08;;;15.98;;
48873;SDS011;66155;46.204;5.220;2024-01-15T18:15:09;30.40;;;15.05;;
48873;SDS011;66155;46.204;5.220;2024-01-15T18:20:10;33.28;;;16.33;;
48873;SDS011;66155;46.204;5.220;2024-01-15T18:25:12;33.30;;;17.77;;
48873;SDS011;66155;46.204;5.220;2024-01-15T18:30:12;28.77;;;15.75;;
48873;SDS011;66155;46.204;5.220;2024-01-15T18:35:13;31.80;;;16.00;;
48873;SDS011;66155;46.204;5.220;2024-01-15T18:40:14;27.67;;;15.93;;
48873;SDS011;66155;46.204;5.220;2024-01-15T18:45:15;37.83;;;17.30;;
48873;SDS011;66155;46.204;5.220;2024-01-15T18:50:16;36.95;;;17.42;;
48873;SDS011;66155;46.204;5.220;2024-01-15T18:55:16;39.38;;;17.10;;
48873;SDS011;66155;46.204;5.220;2024-01-15T19:00:18;27.08;;;15.38;;
48873;SDS011;66155;46.204;5.220;2024-01-15T19:05:20;33.00;;;17.85;;
48873;SDS011;66155;46.204;5.220;2024-01-15T19:10:21;33.70;;;17.47;;
48873;SDS011;66155;46.204;5.220;2024-01-15T19:15:22;36.13;;;17.67;;
48873;SDS011;66155;46.204;5.220;2024-01-15T19:20:22;30.60;;;15.73;;
48873;SDS011;66155;46.204;5.220;2024-01-15T19:25:22;35.30;;;16.73;;
48873;SDS011;66155;46.204;5.220;2024-01-15T19:30:23;45.65;;;23.08;;
48873;SDS011;66155;46.204;5.220;2024-01-15T19:35:23;41.25;;;19.92;;
48873;SDS011;66155;46.204;5.220;2024-01-15T19:40:24;56.08;;;18.38;;
48873;SDS011;66155;46.204;5.220;2024-01-15T19:45:24;59.42;;;16.98;;
48873;SDS011;66155;46.204;5.220;2024-01-15T19:50:25;42.90;;;16.95;;
48873;SDS011;66155;46.204;5.220;2024-01-15T19:55:26;52.38;;;17.23;;
48873;SDS011;66155;46.204;5.220;2024-01-15T20:00:26;41.92;;;16.73;;
48873;SDS011;66155;46.204;5.220;2024-01-15T20:05:27;38.42;;;16.98;;
48873;SDS011;66155;46.204;5.220;2024-01-15T20:10:27;38.30;;;17.15;;
48873;SDS011;66155;46.204;5.220;2024-01-15T20:15:28;36.85;;;18.52;;
48873;SDS011;66155;46.204;5.220;2024-01-15T20:20:28;35.80;;;17.25;;
48873;SDS011;66155;46.204;5.220;2024-01-15T20:25:30;41.47;;;16.65;;
48873;SDS011;66155;46.204;5.220;2024-01-15T20:30:30;35.33;;;17.40;;
48873;SDS011;66155;46.204;5.220;2024-01-15T20:35:31;47.42;;;17.30;;
48873;SDS011;66155;46.204;5.220;2024-01-15T20:40:31;46.83;;;18.15;;
48873;SDS011;66155;46.204;5.220;2024-01-15T20:45:33;57.88;;;15.32;;
48873;SDS011;66155;46.204;5.220;2024-01-15T20:50:34;66.88;;;15.95;;
48873;SDS011;66155;46.204;5.220;2024-01-15T20:55:34;37.22;;;15.60;;
48873;SDS011;66155;46.204;5.220;2024-01-15T21:00:35;30.83;;;14.80;;
48873;SDS011;66155;46.204;5.220;2024-01-15T21:05:36;31.50;;;15.02;;
48873;SDS011;66155;46.204;5.220;2024-01-15T21:10:37;43.92;;;17.98;;
48873;SDS011;66155;46.204;5.220;2024-01-15T21:15:37;40.10;;;17.60;;
48873;SDS011;66155;46.204;5.220;2024-01-15T21:20:38;38.03;;;17.35;;
48873;SDS011;66155;46.204;5.220;2024-01-15T21:25:39;33.30;;;15.95;;
48873;SDS011;66155;46.204;5.220;2024-01-15T21:30:40;31.63;;;15.95;;
48873;SDS011;66155;46.204;5.220;2024-01-15T21:35:40;34.15;;;15.88;;
48873;SDS011;66155;46.204;5.220;2024-01-15T21:40:41;43.47;;;16.25;;
48873;SDS011;66155;46.204;5.220;2024-01-15T21:45:42;31.50;;;14.95;;
48873;SDS011;66155;46.204;5.220;2024-01-15T21:50:43;33.90;;;15.13;;
48873;SDS011;66155;46.204;5.220;2024-01-15T21:55:43;27.42;;;14.43;;
48873;SDS011;66155;46.204;5.220;2024-01-15T22:00:44;27.00;;;15.13;;
48873;SDS011;66155;46.204;5.220;2024-01-15T22:05:44;24.33;;;15.10;;
48873;SDS011;66155;46.204;5.220;2024-01-15T22:10:45;27.90;;;16.13;;
48873;SDS011;66155;46.204;5.220;2024-01-15T22:15:45;35.33;;;16.40;;
48873;SDS011;66155;46.204;5.220;2024-01-15T22:20:46;30.50;;;16.80;;
48873;SDS011;66155;46.204;5.220;2024-01-15T22:25:48;27.15;;;15.75;;
48873;SDS011;66155;46.204;5.220;2024-01-15T22:30:48;32.97;;;16.45;;
48873;SDS011;66155;46.204;5.220;2024-01-15T22:35:48;31.23;;;16.67;;
48873;SDS011;66155;46.204;5.220;2024-01-15T22:40:49;25.25;;;14.68;;
48873;SDS011;66155;46.204;5.220;2024-01-15T22:45:50;31.45;;;15.77;;
48873;SDS011;66155;46.204;5.220;2024-01-15T22:50:50;34.92;;;16.50;;
48873;SDS011;66155;46.204;5.220;2024-01-15T22:55:51;34.28;;;17.23;;
48873;SDS011;66155;46.204;5.220;2024-01-15T23:00:52;32.42;;;16.83;;
48873;SDS011;66155;46.204;5.220;2024-01-15T23:05:53;34.40;;;18.30;;
48873;SDS011;66155;46.204;5.220;2024-01-15T23:10:53;31.23;;;15.63;;
48873;SDS011;66155;46.204;5.220;2024-01-15T23:15:54;31.27;;;15.73;;
48873;SDS011;66155;46.204;5.220;2024-01-15T23:20:54;34.63;;;17.58;;
48873;SDS011;66155;46.204;5.220;2024-01-15T23:25:55;39.25;;;18.40;;
48873;SDS011;66155;46.204;5.220;2024-01-15T23:30:57;37.30;;;15.30;;
48873;SDS011;66155;46.204;5.220;2024-01-15T23:35:57;29.05;;;15.43;;
48873;SDS011;66155;46.204;5.220;2024-01-15T23:41:00;30.80;;;15.10;;
48873;SDS011;66155;46.204;5.220;2024-01-15T23:46:01;26.90;;;14.20;;
48873;SDS011;66155;46.204;5.220;2024-01-15T23:51:01;30.42;;;15.00;;
48873;SDS011;66155;46.204;5.220;2024-01-15T23:56:03;31.42;;;15.82;;
